Time,TemperatureF,DewpointF,PressureIn,WindDirection,WindDirectionDegrees,WindSpeedMPH,WindSpeedGustMPH,Humidity,HourlyPrecipIn,Conditions,Clouds,dailyrainin,SoftwareType,DateUTC
2013-04-21 00:01:00,28.0,21.1,30.27,SE,135,0.0,0.0,75,0.00,,,0.00,WUHU21623XXSP,2013-04-21 04:01:00,
2013-04-21 00:06:00,28.0,21.1,30.27,SE,135,0.0,0.0,75,0.00,,,0.00,WUHU21623XXSP,2013-04-21 04:06:00,
2013-04-21 00:11:00,28.0,21.1,30.27,SE,135,0.0,0.0,75,0.00,,,0.00,WUHU21623XXSP,2013-04-21 04:11:00,
2013-04-21 00:16:00,27.9,20.9,30.28,SSE,157,0.0,0.0,75,0.00,,,0.00,WUHU21623XXSP,2013-04-21 04:16:00,
2013-04-21 00:21:00,27.7,20.8,30.28,SSE,157,0.0,0.0,75,0.00,,,0.00,WUHU21623XXSP,2013-04-21 04:21:00,
2013-04-21 00:26:00,27.7,20.8,30.28,SSW,202,0.0,0.0,75,0.00,,,0.00,WUHU21623XXSP,2013-04-21 04:26:00,
2013-04-21 00:31:00,27.7,21.1,30.28,SSW,202,0.0,0.0,76,0.00,,,0.00,WUHU21623XXSP,2013-04-21 04:31:00,
2013-04-21 00:36:00,27.5,20.9,30.27,SE,135,0.0,0.0,76,0.00,,,0.00,WUHU21623XXSP,2013-04-21 04:36:00,
2013-04-21 00:41:00,27.3,21.0,30.28,SE,135,0.0,0.0,77,0.00,,,0.00,WUHU21623XXSP,2013-04-21 04:41:00,
2013-04-21 00:46:00,27.3,21.6,30.28,SE,135,0.0,0.0,79,0.00,,,0.00,WUHU21623XXSP,2013-04-21 04:46:00,
2013-04-21 00:51:00,27.3,21.3,30.28,SE,135,0.0,0.0,78,0.00,,,0.00,WUHU21623XXSP,2013-04-21 04:51:00,
2013-04-21 00:56:00,27.1,21.1,30.28,SE,135,0.0,0.0,78,0.00,,,0.00,WUHU21623XXSP,2013-04-21 04:56:00,
2013-04-21 01:01:00,27.1,21.1,30.28,SE,135,0.0,0.0,78,0.00,,,0.00,WUHU21623XXSP,2013-04-21 05:01:00,
2013-04-21 01:06:00,26.8,20.9,30.28,ENE,67,0.0,0.0,78,0.00,,,0.00,WUHU21623XXSP,2013-04-21 05:06:00,
2013-04-21 01:11:00,26.6,20.6,30.28,ENE,67,0.0,0.0,78,0.00,,,0.00,WUHU21623XXSP,2013-04-21 05:11:00,
2013-04-21 01:16:00,26.4,20.4,30.28,NE,45,0.0,0.0,78,0.00,,,0.00,WUHU21623XXSP,2013-04-21 05:16:00,
2013-04-21 01:21:00,26.4,20.4,30.29,ENE,67,0.0,0.0,78,0.00,,,0.00,WUHU21623XXSP,2013-04-21 05:21:00,
2013-04-21 01:26:00,26.2,20.6,30.29,ENE,67,0.0,0.0,79,0.00,,,0.00,WUHU21623XXSP,2013-04-21 05:26:00,
2013-04-21 01:31:00,26.1,20.4,30.29,ENE,67,0.0,0.0,79,0.00,,,0.00,WUHU21623XXSP,2013-04-21 05:31:00,
2013-04-21 01:36:00,25.9,20.2,30.29,ENE,67,0.0,0.0,79,0.00,,,0.00,WUHU21623XXSP,2013-04-21 05:36:00,
2013-04-21 01:41:00,25.7,20.1,30.28,ESE,112,0.0,0.0,79,0.00,,,0.00,WUHU21623XXSP,2013-04-21 05:41:00,
2013-04-21 01:46:00,25.7,20.1,30.28,ENE,67,0.0,0.0,79,0.00,,,0.00,WUHU21623XXSP,2013-04-21 05:46:00,
2013-04-21 01:51:00,25.7,20.2,30.28,ENE,67,0.0,0.0,80,0.00,,,0.00,WUHU21623XXSP,2013-04-21 05:51:00,
2013-04-21 01:57:00,25.7,20.4,30.29,ENE,67,0.0,0.0,80,0.00,,,0.00,WUHU21623XXSP,2013-04-21 05:57:00,
2013-04-21 02:02:00,25.5,20.2,30.29,ENE,67,0.0,0.0,80,0.00,,,0.00,WUHU21623XXSP,2013-04-21 06:02:00,
2013-04-21 02:07:00,25.5,20.2,30.29,East,90,0.0,0.0,80,0.00,,,0.00,WUHU21623XXSP,2013-04-21 06:07:00,
2013-04-21 02:12:00,25.5,20.2,30.29,NE,45,0.0,0.0,80,0.00,,,0.00,WUHU21623XXSP,2013-04-21 06:12:00,
2013-04-21 02:17:00,25.3,20.1,30.29,NE,45,0.0,0.0,80,0.00,,,0.00,WUHU21623XXSP,2013-04-21 06:17:00,
2013-04-21 02:22:00,25.2,19.9,30.29,NE,45,0.0,0.0,80,0.00,,,0.00,WUHU21623XXSP,2013-04-21 06:22:00,
2013-04-21 02:27:00,25.0,19.7,30.29,NE,45,0.0,0.0,80,0.00,,,0.00,WUHU21623XXSP,2013-04-21 06:27:00,
2013-04-21 02:32:00,25.0,19.7,30.29,ENE,67,0.0,0.0,80,0.00,,,0.00,WUHU21623XXSP,2013-04-21 06:32:00,
2013-04-21 02:37:00,24.6,19.7,30.28,ENE,67,0.0,0.0,81,0.00,,,0.00,WUHU21623XXSP,2013-04-21 06:37:00,
2013-04-21 02:42:00,24.6,19.7,30.29,ENE,67,0.0,0.0,81,0.00,,,0.00,WUHU21623XXSP,2013-04-21 06:42:00,
2013-04-21 02:47:00,24.6,19.7,30.29,ENE,67,0.0,0.0,81,0.00,,,0.00,WUHU21623XXSP,2013-04-21 06:47:00,
2013-04-21 02:52:00,24.4,19.5,30.29,ENE,67,0.0,0.0,81,0.00,,,0.00,WUHU21623XXSP,2013-04-21 06:52:00,
2013-04-21 02:57:00,24.4,19.5,30.29,ENE,67,0.0,0.0,81,0.00,,,0.00,WUHU21623XXSP,2013-04-21 06:57:00,
2013-04-21 03:02:00,24.4,19.5,30.28,ENE,67,0.0,0.0,81,0.00,,,0.00,WUHU21623XXSP,2013-04-21 07:02:00,
2013-04-21 03:07:00,24.4,19.8,30.29,ENE,67,0.0,0.0,82,0.00,,,0.00,WUHU21623XXSP,2013-04-21 07:07:00,
2013-04-21 03:12:00,24.4,19.8,30.29,ENE,67,0.0,0.0,82,0.00,,,0.00,WUHU21623XXSP,2013-04-21 07:12:00,
2013-04-21 03:17:00,24.4,19.8,30.29,ENE,67,0.0,0.0,82,0.00,,,0.00,WUHU21623XXSP,2013-04-21 07:17:00,
2013-04-21 03:22:00,24.4,19.8,30.29,East,90,0.0,0.0,82,0.00,,,0.00,WUHU21623XXSP,2013-04-21 07:22:00,
2013-04-21 03:28:00,24.4,19.8,30.28,ENE,67,0.0,0.0,82,0.00,,,0.00,WUHU21623XXSP,2013-04-21 07:28:00,
2013-04-21 03:33:00,24.4,19.8,30.29,ENE,67,0.0,0.0,82,0.00,,,0.00,WUHU21623XXSP,2013-04-21 07:33:00,
2013-04-21 03:38:00,24.1,19.4,30.29,ENE,67,0.0,0.0,82,0.00,,,0.00,WUHU21623XXSP,2013-04-21 07:38:00,
2013-04-21 03:43:00,24.1,19.4,30.29,ENE,67,0.0,0.0,82,0.00,,,0.00,WUHU21623XXSP,2013-04-21 07:43:00,
2013-04-21 03:48:00,24.1,19.4,30.29,ENE,67,0.0,0.0,82,0.00,,,0.00,WUHU21623XXSP,2013-04-21 07:48:00,
2013-04-21 03:53:00,23.9,19.2,30.30,ENE,67,0.0,0.0,82,0.00,,,0.00,WUHU21623XXSP,2013-04-21 07:53:00,
2013-04-21 03:58:00,23.7,19.0,30.30,ENE,67,0.0,0.0,82,0.00,,,0.00,WUHU21623XXSP,2013-04-21 07:58:00,
2013-04-21 04:03:00,23.7,19.0,30.30,ENE,67,0.0,0.0,82,0.00,,,0.00,WUHU21623XXSP,2013-04-21 08:03:00,
2013-04-21 04:08:00,23.7,19.3,30.30,ENE,67,0.0,0.0,83,0.00,,,0.00,WUHU21623XXSP,2013-04-21 08:08:00,
2013-04-21 04:13:00,23.7,19.3,30.30,ENE,67,0.0,0.0,83,0.00,,,0.00,WUHU21623XXSP,2013-04-21 08:13:00,
2013-04-21 04:18:00,23.7,19.3,30.30,ENE,67,0.0,0.0,83,0.00,,,0.00,WUHU21623XXSP,2013-04-21 08:18:00,
2013-04-21 04:23:00,23.7,19.3,30.31,ENE,67,0.0,0.0,83,0.00,,,0.00,WUHU21623XXSP,2013-04-21 08:23:00,
2013-04-21 04:28:00,23.7,19.3,30.31,ENE,67,0.0,0.0,83,0.00,,,0.00,WUHU21623XXSP,2013-04-21 08:28:00,
2013-04-21 04:33:00,23.7,19.3,30.31,ENE,67,0.0,0.0,83,0.00,,,0.00,WUHU21623XXSP,2013-04-21 08:33:00,
2013-04-21 04:38:00,23.7,19.3,30.30,ENE,67,0.0,0.0,83,0.00,,,0.00,WUHU21623XXSP,2013-04-21 08:38:00,
2013-04-21 04:43:00,23.5,19.1,30.31,ENE,67,0.0,0.0,83,0.00,,,0.00,WUHU21623XXSP,2013-04-21 08:43:00,
2013-04-21 04:48:00,23.5,19.1,30.31,ENE,67,0.0,0.0,83,0.00,,,0.00,WUHU21623XXSP,2013-04-21 08:48:00,
2013-04-21 04:53:00,23.5,19.1,30.32,ENE,67,0.0,0.0,83,0.00,,,0.00,WUHU21623XXSP,2013-04-21 08:53:00,
2013-04-21 04:58:00,23.5,19.1,30.31,ENE,67,0.0,0.0,83,0.00,,,0.00,WUHU21623XXSP,2013-04-21 08:58:00,
2013-04-21 05:03:00,23.5,19.1,30.32,ENE,67,0.0,0.0,83,0.00,,,0.00,WUHU21623XXSP,2013-04-21 09:03:00,
2013-04-21 05:08:00,23.4,18.9,30.32,ENE,67,0.0,0.0,83,0.00,,,0.00,WUHU21623XXSP,2013-04-21 09:08:00,
2013-04-21 05:13:00,23.4,18.9,30.32,ENE,67,0.0,0.0,83,0.00,,,0.00,WUHU21623XXSP,2013-04-21 09:13:00,
2013-04-21 05:18:00,23.5,19.1,30.32,ENE,67,0.0,0.0,83,0.00,,,0.00,WUHU21623XXSP,2013-04-21 09:18:00,
2013-04-21 05:23:00,23.5,19.4,30.32,ENE,67,0.0,0.0,84,0.00,,,0.00,WUHU21623XXSP,2013-04-21 09:23:00,
2013-04-21 05:28:00,23.5,19.4,30.33,ENE,67,0.0,0.0,84,0.00,,,0.00,WUHU21623XXSP,2013-04-21 09:28:00,
2013-04-21 05:33:00,23.5,19.4,30.33,ENE,67,0.0,0.0,84,0.00,,,0.00,WUHU21623XXSP,2013-04-21 09:33:00,
2013-04-21 05:38:00,23.5,19.4,30.33,ENE,67,0.0,0.0,84,0.00,,,0.00,WUHU21623XXSP,2013-04-21 09:38:00,
2013-04-21 05:43:00,23.4,19.2,30.33,ENE,67,0.0,0.0,84,0.00,,,0.00,WUHU21623XXSP,2013-04-21 09:43:00,
2013-04-21 05:48:00,23.5,19.4,30.33,ENE,67,0.0,0.0,84,0.00,,,0.00,WUHU21623XXSP,2013-04-21 09:48:00,
2013-04-21 05:53:00,23.4,19.2,30.33,ENE,67,0.0,0.0,84,0.00,,,0.00,WUHU21623XXSP,2013-04-21 09:53:00,
2013-04-21 05:58:00,23.4,19.2,30.34,South,180,0.0,0.0,84,0.00,,,0.00,WUHU21623XXSP,2013-04-21 09:58:00,
2013-04-21 06:03:00,23.4,19.2,30.34,WNW,292,0.0,0.0,84,0.00,,,0.00,WUHU21623XXSP,2013-04-21 10:03:00,
2013-04-21 06:08:00,23.4,19.2,30.34,NE,45,0.0,0.0,84,0.00,,,0.00,WUHU21623XXSP,2013-04-21 10:08:00,
2013-04-21 06:13:00,23.4,19.2,30.34,East,90,0.0,0.0,84,0.00,,,0.00,WUHU21623XXSP,2013-04-21 10:13:00,
2013-04-21 06:18:00,23.4,19.2,30.34,ENE,67,0.0,0.0,84,0.00,,,0.00,WUHU21623XXSP,2013-04-21 10:18:00,
2013-04-21 06:23:00,23.4,19.2,30.34,ENE,67,0.0,0.0,84,0.00,,,0.00,WUHU21623XXSP,2013-04-21 10:23:00,
2013-04-21 06:28:00,23.2,19.0,30.35,ENE,67,0.0,0.0,84,0.00,,,0.00,WUHU21623XXSP,2013-04-21 10:28:00,
2013-04-21 06:33:00,23.2,19.0,30.34,ENE,67,0.0,0.0,84,0.00,,,0.00,WUHU21623XXSP,2013-04-21 10:33:00,
2013-04-21 06:38:00,23.2,19.0,30.35,ENE,67,0.0,0.0,84,0.00,,,0.00,WUHU21623XXSP,2013-04-21 10:38:00,
2013-04-21 06:43:00,23.2,19.0,30.35,ENE,67,0.0,0.0,84,0.00,,,0.00,WUHU21623XXSP,2013-04-21 10:43:00,
2013-04-21 06:48:00,23.2,19.0,30.35,ENE,67,0.0,0.0,84,0.00,,,0.00,WUHU21623XXSP,2013-04-21 10:48:00,
2013-04-21 06:53:00,23.0,18.9,30.35,ENE,67,0.0,0.0,84,0.00,,,0.00,WUHU21623XXSP,2013-04-21 10:53:00,
2013-04-21 06:58:00,23.0,18.9,30.35,ENE,67,0.0,0.0,84,0.00,,,0.00,WUHU21623XXSP,2013-04-21 10:58:00,
2013-04-21 07:03:00,22.8,18.7,30.35,ENE,67,0.0,0.0,84,0.00,,,0.00,WUHU21623XXSP,2013-04-21 11:03:00,
2013-04-21 07:08:00,22.8,18.7,30.35,ENE,67,0.0,0.0,84,0.00,,,0.00,WUHU21623XXSP,2013-04-21 11:08:00,
2013-04-21 07:13:00,23.0,18.9,30.35,ENE,67,0.0,0.0,84,0.00,,,0.00,WUHU21623XXSP,2013-04-21 11:13:00,
2013-04-21 07:18:00,23.2,19.3,30.35,ENE,67,0.0,0.0,85,0.00,,,0.00,WUHU21623XXSP,2013-04-21 11:18:00,
2013-04-21 07:23:00,23.2,19.3,30.36,ENE,67,0.0,0.0,85,0.00,,,0.00,WUHU21623XXSP,2013-04-21 11:23:00,
2013-04-21 07:28:00,23.4,19.5,30.36,ENE,67,0.0,0.0,85,0.00,,,0.00,WUHU21623XXSP,2013-04-21 11:28:00,
2013-04-21 07:33:00,23.4,19.5,30.36,ENE,67,0.0,0.0,85,0.00,,,0.00,WUHU21623XXSP,2013-04-21 11:33:00,
2013-04-21 07:38:00,23.5,19.7,30.36,SE,135,0.0,0.0,85,0.00,,,0.00,WUHU21623XXSP,2013-04-21 11:38:00,
2013-04-21 07:43:00,23.9,20.0,30.36,ENE,67,0.0,0.0,85,0.00,,,0.00,WUHU21623XXSP,2013-04-21 11:43:00,
2013-04-21 07:48:00,24.1,20.2,30.37,ENE,67,0.0,0.0,85,0.00,,,0.00,WUHU21623XXSP,2013-04-21 11:48:00,
2013-04-21 07:53:00,24.6,20.8,30.37,ENE,67,0.0,0.0,85,0.00,,,0.00,WUHU21623XXSP,2013-04-21 11:53:00,
2013-04-21 07:58:00,25.0,21.1,30.37,SE,135,0.0,0.0,85,0.00,,,0.00,WUHU21623XXSP,2013-04-21 11:58:00,
2013-04-21 08:03:00,25.3,21.7,30.37,ESE,112,1.3,1.3,86,0.00,,,0.00,WUHU21623XXSP,2013-04-21 12:03:00,
2013-04-21 08:08:00,25.7,21.8,30.37,SE,135,1.1,1.3,85,0.00,,,0.00,WUHU21623XXSP,2013-04-21 12:08:00,
2013-04-21 08:13:00,26.2,22.3,30.37,East,90,2.9,2.9,85,0.00,,,0.00,WUHU21623XXSP,2013-04-21 12:13:00,
2013-04-21 08:18:00,26.8,22.5,30.37,East,97,1.8,2.9,84,0.00,,,0.00,WUHU21623XXSP,2013-04-21 12:18:00,
2013-04-21 08:23:00,27.3,23.1,30.37,SE,130,2.1,3.1,84,0.00,,,0.00,WUHU21623XXSP,2013-04-21 12:23:00,
2013-04-21 08:28:00,27.7,22.9,30.38,ESE,110,1.9,4.3,82,0.00,,,0.00,WUHU21623XXSP,2013-04-21 12:28:00,
2013-04-21 08:33:00,28.2,23.1,30.37,ESE,108,1.5,4.3,81,0.00,,,0.00,WUHU21623XXSP,2013-04-21 12:33:00,
2013-04-21 08:38:00,28.8,23.4,30.37,SSE,157,2.2,4.3,80,0.00,,,0.00,WUHU21623XXSP,2013-04-21 12:38:00,
2013-04-21 08:43:00,29.3,23.6,30.38,South,185,3.1,5.6,79,0.00,,,0.00,WUHU21623XXSP,2013-04-21 12:43:00,
2013-04-21 08:48:00,30.0,23.6,30.38,SSE,168,1.3,5.6,77,0.00,,,0.00,WUHU21623XXSP,2013-04-21 12:48:00,
2013-04-21 08:53:00,30.6,23.9,30.38,SSE,166,2.7,5.4,76,0.00,,,0.00,WUHU21623XXSP,2013-04-21 12:53:00,
2013-04-21 08:58:00,30.9,23.9,30.38,South,180,4.9,4.9,75,0.00,,,0.00,WUHU21623XXSP,2013-04-21 12:58:00,
2013-04-21 09:03:00,31.5,23.8,30.38,SE,135,2.2,4.9,73,0.00,,,0.00,WUHU21623XXSP,2013-04-21 13:03:00,
2013-04-21 09:08:00,31.8,24.2,30.38,SSE,157,2.9,4.3,73,0.00,,,0.00,WUHU21623XXSP,2013-04-21 13:08:00,
2013-04-21 09:13:00,32.4,24.0,30.38,SSE,162,3.0,7.2,71,0.00,,,0.00,WUHU21623XXSP,2013-04-21 13:13:00,
2013-04-21 09:18:00,32.7,24.0,30.38,South,180,2.9,7.2,70,0.00,,,0.00,WUHU21623XXSP,2013-04-21 13:18:00,
2013-04-21 09:23:00,33.1,24.3,30.38,SE,140,2.2,5.8,70,0.00,,,0.00,WUHU21623XXSP,2013-04-21 13:23:00,
2013-04-21 09:28:00,33.6,24.5,30.38,SSE,166,3.8,5.8,69,0.00,,,0.00,WUHU21623XXSP,2013-04-21 13:28:00,
2013-04-21 09:33:00,34.0,24.8,30.38,SSE,152,2.1,5.8,69,0.00,,,0.00,WUHU21623XXSP,2013-04-21 13:33:00,
2013-04-21 09:38:00,34.3,24.4,30.37,East,90,4.0,9.2,67,0.00,,,0.00,WUHU21623XXSP,2013-04-21 13:38:00,
2013-04-21 09:43:00,34.9,24.6,30.38,NE,45,4.0,9.2,66,0.00,,,0.00,WUHU21623XXSP,2013-04-21 13:43:00,
2013-04-21 09:48:00,35.4,24.8,30.37,SE,131,4.0,8.9,65,0.00,,,0.00,WUHU21623XXSP,2013-04-21 13:48:00,
2013-04-21 09:53:00,36.0,24.9,30.38,SE,125,3.3,8.9,64,0.00,,,0.00,WUHU21623XXSP,2013-04-21 13:53:00,
2013-04-21 09:58:00,36.5,25.1,30.38,SE,133,1.9,4.7,63,0.00,,,0.00,WUHU21623XXSP,2013-04-21 13:58:00,
2013-04-21 10:03:00,37.0,25.2,30.38,ESE,112,4.7,7.4,62,0.00,,,0.00,WUHU21623XXSP,2013-04-21 14:03:00,
2013-04-21 10:08:00,37.6,25.7,30.37,SE,142,2.1,7.4,62,0.00,,,0.00,WUHU21623XXSP,2013-04-21 14:08:00,
2013-04-21 10:13:00,38.1,25.8,30.37,ESE,113,2.8,7.4,61,0.00,,,0.00,WUHU21623XXSP,2013-04-21 14:13:00,
2013-04-21 10:18:00,38.5,25.3,30.38,ESE,111,4.9,8.3,59,0.00,,,0.00,WUHU21623XXSP,2013-04-21 14:18:00,
2013-04-21 10:23:00,38.8,25.2,30.38,ESE,110,3.9,9.8,58,0.00,,,0.00,WUHU21623XXSP,2013-04-21 14:23:00,
2013-04-21 10:28:00,39.4,26.1,30.37,East,90,2.9,9.8,59,0.00,,,0.00,WUHU21623XXSP,2013-04-21 14:28:00,
2013-04-21 10:33:00,39.9,24.9,30.37,SE,133,3.1,9.6,55,0.00,,,0.00,WUHU21623XXSP,2013-04-21 14:33:00,
2013-04-21 10:38:00,40.3,25.3,30.37,SSE,157,8.7,9.6,55,0.00,,,0.00,WUHU21623XXSP,2013-04-21 14:38:00,
2013-04-21 10:43:00,40.8,26.2,30.37,South,180,7.2,8.7,56,0.00,,,0.00,WUHU21623XXSP,2013-04-21 14:43:00,
2013-04-21 10:48:00,41.2,26.6,30.38,South,181,5.3,10.7,56,0.00,,,0.00,WUHU21623XXSP,2013-04-21 14:48:00,
2013-04-21 10:53:00,41.7,25.8,30.37,ESE,117,3.1,10.7,53,0.00,,,0.00,WUHU21623XXSP,2013-04-21 14:53:00,
2013-04-21 10:58:00,42.1,25.7,30.37,SE,139,3.6,7.8,52,0.00,,,0.00,WUHU21623XXSP,2013-04-21 14:58:00,
2013-04-21 11:03:00,42.1,25.7,30.37,SSE,157,8.7,8.7,52,0.00,,,0.00,WUHU21623XXSP,2013-04-21 15:03:00,
2013-04-21 11:08:00,42.4,26.0,30.38,South,170,5.3,13.0,52,0.00,,,0.00,WUHU21623XXSP,2013-04-21 15:08:00,
2013-04-21 11:13:00,42.6,26.2,30.38,East,90,3.4,13.0,52,0.00,,,0.00,WUHU21623XXSP,2013-04-21 15:13:00,
2013-04-21 11:18:00,43.2,26.3,30.38,SSW,202,17.2,17.2,51,0.00,,,0.00,WUHU21623XXSP,2013-04-21 15:18:00,
2013-04-21 11:23:00,43.3,26.4,30.38,SSE,165,4.6,17.2,51,0.00,,,0.00,WUHU21623XXSP,2013-04-21 15:23:00,
2013-04-21 11:28:00,43.5,25.1,30.38,SSE,159,5.9,11.2,48,0.00,,,0.00,WUHU21623XXSP,2013-04-21 15:28:00,
2013-04-21 11:33:00,43.7,25.3,30.38,SSE,153,3.2,9.4,48,0.00,,,0.00,WUHU21623XXSP,2013-04-21 15:33:00,
2013-04-21 11:38:00,44.1,25.6,30.38,South,180,3.6,7.8,48,0.00,,,0.00,WUHU21623XXSP,2013-04-21 15:38:00,
2013-04-21 11:43:00,44.4,25.4,30.38,SSE,147,3.1,10.5,47,0.00,,,0.00,WUHU21623XXSP,2013-04-21 15:43:00,
2013-04-21 11:48:00,44.6,25.5,30.37,ESE,118,4.1,10.5,47,0.00,,,0.00,WUHU21623XXSP,2013-04-21 15:48:00,
2013-04-21 11:54:00,45.0,26.4,30.38,SW,216,1.9,8.1,48,0.00,,,0.00,WUHU21623XXSP,2013-04-21 15:54:00,
2013-04-21 11:59:00,45.3,26.2,30.38,ENE,77,2.3,5.8,47,0.00,,,0.00,WUHU21623XXSP,2013-04-21 15:59:00,
2013-04-21 12:04:00,45.7,26.5,30.38,NNE,22,5.1,5.8,47,0.00,,,0.00,WUHU21623XXSP,2013-04-21 16:04:00,
2013-04-21 12:09:00,46.2,27.0,30.37,SSE,147,3.2,7.4,47,0.00,,,0.00,WUHU21623XXSP,2013-04-21 16:09:00,
2013-04-21 12:14:00,46.6,26.8,30.37,ESE,121,2.6,7.4,46,0.00,,,0.00,WUHU21623XXSP,2013-04-21 16:14:00,
2013-04-21 12:19:00,46.9,27.1,30.37,SE,140,3.5,9.2,46,0.00,,,0.00,WUHU21623XXSP,2013-04-21 16:19:00,
2013-04-21 12:24:00,47.3,26.9,30.37,South,182,8.6,13.2,45,0.00,,,0.00,WUHU21623XXSP,2013-04-21 16:24:00,
2013-04-21 12:29:00,47.7,28.3,30.36,South,180,8.7,14.8,47,0.00,,,0.00,WUHU21623XXSP,2013-04-21 16:29:00,
2013-04-21 12:34:00,48.0,28.1,30.36,ESE,112,3.1,14.8,46,0.00,,,0.00,WUHU21623XXSP,2013-04-21 16:34:00,
2013-04-21 12:39:00,48.4,28.9,30.36,SSW,202,8.3,13.9,47,0.00,,,0.00,WUHU21623XXSP,2013-04-21 16:39:00,
2013-04-21 12:44:00,48.9,28.9,30.36,SSE,165,4.2,13.9,46,0.00,,,0.00,WUHU21623XXSP,2013-04-21 16:44:00,
2013-04-21 12:49:00,49.1,29.1,30.36,SSE,157,7.6,11.9,46,0.00,,,0.00,WUHU21623XXSP,2013-04-21 16:49:00,
2013-04-21 12:54:00,49.3,28.7,30.36,ESE,112,6.5,11.9,45,0.00,,,0.00,WUHU21623XXSP,2013-04-21 16:54:00,
2013-04-21 12:59:00,49.6,29.0,30.35,South,172,5.4,11.9,45,0.00,,,0.00,WUHU21623XXSP,2013-04-21 16:59:00,
2013-04-21 13:04:00,49.8,28.7,30.35,South,169,5.3,11.9,44,0.00,,,0.00,WUHU21623XXSP,2013-04-21 17:04:00,
2013-04-21 13:09:00,49.8,29.2,30.35,South,174,7.8,15.0,45,0.00,,,0.00,WUHU21623XXSP,2013-04-21 17:09:00,
2013-04-21 13:14:00,50.2,29.0,30.35,SSE,157,4.5,15.0,44,0.00,,,0.00,WUHU21623XXSP,2013-04-21 17:14:00,
2013-04-21 13:19:00,50.5,29.3,30.35,SSW,202,4.7,8.3,44,0.00,,,0.00,WUHU21623XXSP,2013-04-21 17:19:00,
2013-04-21 13:24:00,50.7,28.9,30.34,ESE,112,6.7,8.3,43,0.00,,,0.00,WUHU21623XXSP,2013-04-21 17:24:00,
2013-04-21 13:29:00,50.7,28.9,30.35,SSE,157,5.1,8.5,43,0.00,,,0.00,WUHU21623XXSP,2013-04-21 17:29:00,
2013-04-21 13:34:00,50.7,28.9,30.34,SSE,154,2.5,8.5,43,0.00,,,0.00,WUHU21623XXSP,2013-04-21 17:34:00,
2013-04-21 13:39:00,51.3,29.4,30.34,SE,141,4.3,11.9,43,0.00,,,0.00,WUHU21623XXSP,2013-04-21 17:39:00,
2013-04-21 13:44:00,51.4,30.1,30.34,SSW,202,7.4,11.9,44,0.00,,,0.00,WUHU21623XXSP,2013-04-21 17:44:00,
2013-04-21 13:49:00,51.6,29.2,30.33,SSE,159,4.4,10.5,42,0.00,,,0.00,WUHU21623XXSP,2013-04-21 17:49:00,
2013-04-21 13:54:00,52.0,30.6,30.33,ENE,67,1.6,13.6,44,0.00,,,0.00,WUHU21623XXSP,2013-04-21 17:54:00,
2013-04-21 13:59:00,52.3,29.8,30.33,SE,126,2.7,13.6,42,0.00,,,0.00,WUHU21623XXSP,2013-04-21 17:59:00,
2013-04-21 14:04:00,52.5,30.5,30.33,ESE,112,6.3,13.6,43,0.00,,,0.00,WUHU21623XXSP,2013-04-21 18:04:00,
2013-04-21 14:09:00,52.7,29.6,30.32,East,87,2.5,13.6,41,0.00,,,0.00,WUHU21623XXSP,2013-04-21 18:09:00,
2013-04-21 14:14:00,52.9,30.3,30.32,NNE,22,3.8,10.1,42,0.00,,,0.00,WUHU21623XXSP,2013-04-21 18:14:00,
2013-04-21 14:19:00,52.9,29.8,30.32,South,180,8.7,11.9,41,0.00,,,0.00,WUHU21623XXSP,2013-04-21 18:19:00,
2013-04-21 14:24:00,53.2,29.5,30.32,South,180,4.9,11.9,40,0.00,,,0.00,WUHU21623XXSP,2013-04-21 18:24:00,
2013-04-21 14:29:00,53.4,30.2,30.32,SSE,157,8.9,11.4,41,0.00,,,0.00,WUHU21623XXSP,2013-04-21 18:29:00,
2013-04-21 14:34:00,53.4,30.8,30.31,South,172,4.1,9.2,42,0.00,,,0.00,WUHU21623XXSP,2013-04-21 18:34:00,
2013-04-21 14:39:00,54.0,31.8,30.31,SSW,202,9.4,10.5,43,0.00,,,0.00,WUHU21623XXSP,2013-04-21 18:39:00,
2013-04-21 14:44:00,54.3,30.5,30.31,SSE,152,4.5,10.5,40,0.00,,,0.00,WUHU21623XXSP,2013-04-21 18:44:00,
2013-04-21 14:49:00,54.3,30.5,30.31,ESE,112,3.1,10.3,40,0.00,,,0.00,WUHU21623XXSP,2013-04-21 18:49:00,
2013-04-21 14:54:00,54.3,30.5,30.30,ESE,112,5.6,9.4,40,0.00,,,0.00,WUHU21623XXSP,2013-04-21 18:54:00,
2013-04-21 14:59:00,54.3,30.5,30.30,ESE,121,2.3,9.4,40,0.00,,,0.00,WUHU21623XXSP,2013-04-21 18:59:00,
2013-04-21 15:04:00,54.7,30.8,30.31,ESE,103,3.8,14.1,40,0.00,,,0.00,WUHU21623XXSP,2013-04-21 19:04:00,
2013-04-21 15:09:00,54.9,31.5,30.30,SSE,165,5.6,14.1,41,0.00,,,0.00,WUHU21623XXSP,2013-04-21 19:09:00,
2013-04-21 15:14:00,54.9,31.5,30.30,South,169,3.8,12.8,41,0.00,,,0.00,WUHU21623XXSP,2013-04-21 19:14:00,
2013-04-21 15:19:00,55.0,31.7,30.29,South,190,5.5,13.0,41,0.00,,,0.00,WUHU21623XXSP,2013-04-21 19:19:00,
2013-04-21 15:24:00,55.2,31.9,30.29,SE,144,3.8,13.0,41,0.00,,,0.00,WUHU21623XXSP,2013-04-21 19:24:00,
2013-04-21 15:29:00,55.2,31.9,30.29,South,180,4.9,13.2,41,0.00,,,0.00,WUHU21623XXSP,2013-04-21 19:29:00,
2013-04-21 15:34:00,55.4,31.5,30.29,ESE,118,3.9,13.2,40,0.00,,,0.00,WUHU21623XXSP,2013-04-21 19:34:00,
2013-04-21 15:39:00,55.4,31.5,30.29,ESE,118,3.2,9.4,40,0.00,,,0.00,WUHU21623XXSP,2013-04-21 19:39:00,
2013-04-21 15:44:00,55.2,31.3,30.28,SE,135,4.5,9.4,40,0.00,,,0.00,WUHU21623XXSP,2013-04-21 19:44:00,
2013-04-21 15:49:00,55.2,30.6,30.27,East,97,3.5,8.3,39,0.00,,,0.00,WUHU21623XXSP,2013-04-21 19:49:00,
2013-04-21 15:54:00,55.2,30.6,30.27,East,99,4.1,8.3,39,0.00,,,0.00,WUHU21623XXSP,2013-04-21 19:54:00,
2013-04-21 15:59:00,55.2,32.4,30.26,SE,135,3.8,9.2,42,0.00,,,0.00,WUHU21623XXSP,2013-04-21 19:59:00,
2013-04-21 16:04:00,55.2,31.3,30.26,East,90,4.5,9.6,40,0.00,,,0.00,WUHU21623XXSP,2013-04-21 20:04:00,
2013-04-21 16:09:00,55.4,32.6,30.26,South,180,10.7,13.4,42,0.00,,,0.00,WUHU21623XXSP,2013-04-21 20:09:00,
2013-04-21 16:14:00,55.6,32.2,30.25,SSW,202,6.9,19.2,41,0.00,,,0.00,WUHU21623XXSP,2013-04-21 20:14:00,
2013-04-21 16:19:00,55.6,32.2,30.25,ESE,112,5.6,19.2,41,0.00,,,0.00,WUHU21623XXSP,2013-04-21 20:19:00,
2013-04-21 16:24:00,55.6,32.2,30.25,South,176,6.4,11.9,41,0.00,,,0.00,WUHU21623XXSP,2013-04-21 20:24:00,
2013-04-21 16:29:00,55.6,32.7,30.25,South,172,6.0,13.6,42,0.00,,,0.00,WUHU21623XXSP,2013-04-21 20:29:00,
2013-04-21 16:34:00,55.4,32.6,30.25,SE,135,3.4,13.6,42,0.00,,,0.00,WUHU21623XXSP,2013-04-21 20:34:00,
2013-04-21 16:39:00,55.6,32.7,30.24,SSW,202,7.8,10.5,42,0.00,,,0.00,WUHU21623XXSP,2013-04-21 20:39:00,
2013-04-21 16:44:00,55.4,32.6,30.25,SSE,157,5.1,11.0,42,0.00,,,0.00,WUHU21623XXSP,2013-04-21 20:44:00,
2013-04-21 16:49:00,55.2,31.9,30.24,SE,135,2.9,11.0,41,0.00,,,0.00,WUHU21623XXSP,2013-04-21 20:49:00,
2013-04-21 16:54:00,55.0,32.3,30.24,SE,138,4.6,10.5,42,0.00,,,0.00,WUHU21623XXSP,2013-04-21 20:54:00,
2013-04-21 16:59:00,55.0,32.3,30.24,SE,126,2.4,8.7,42,0.00,,,0.00,WUHU21623XXSP,2013-04-21 20:59:00,
2013-04-21 17:04:00,55.2,33.0,30.24,SE,135,4.9,6.5,43,0.00,,,0.00,WUHU21623XXSP,2013-04-21 21:04:00,
2013-04-21 17:09:00,55.2,32.4,30.24,SE,142,3.8,8.3,42,0.00,,,0.00,WUHU21623XXSP,2013-04-21 21:09:00,
2013-04-21 17:14:00,55.2,32.4,30.24,South,170,6.1,13.0,42,0.00,,,0.00,WUHU21623XXSP,2013-04-21 21:14:00,
2013-04-21 17:19:00,55.2,32.4,30.23,SSE,157,5.1,13.0,42,0.00,,,0.00,WUHU21623XXSP,2013-04-21 21:19:00,
2013-04-21 17:24:00,55.0,32.3,30.23,SW,225,7.8,12.3,42,0.00,,,0.00,WUHU21623XXSP,2013-04-21 21:24:00,
2013-04-21 17:29:00,54.9,31.5,30.23,ESE,118,3.9,12.3,41,0.00,,,0.00,WUHU21623XXSP,2013-04-21 21:29:00,
2013-04-21 17:34:00,54.9,32.1,30.23,SSW,202,4.3,9.2,42,0.00,,,0.00,WUHU21623XXSP,2013-04-21 21:34:00,
2013-04-21 17:39:00,54.7,31.9,30.23,SSE,153,5.5,14.1,42,0.00,,,0.00,WUHU21623XXSP,2013-04-21 21:39:00,
2013-04-21 17:48:00,54.7,31.9,30.23,ESE,107,3.2,14.1,42,0.00,,,0.00,WUHU21623XXSP,2013-04-21 21:48:00,
2013-04-21 17:53:00,54.1,31.4,30.22,SE,135,2.5,5.1,42,0.00,,,0.00,WUHU21623XXSP,2013-04-21 21:53:00,
2013-04-21 17:58:00,54.3,31.6,30.22,SSE,157,4.0,6.9,42,0.00,,,0.00,WUHU21623XXSP,2013-04-21 21:58:00,
2013-04-21 18:03:00,54.3,32.2,30.22,ESE,112,4.7,8.5,43,0.00,,,0.00,WUHU21623XXSP,2013-04-21 22:03:00,
2013-04-21 18:08:00,54.3,32.2,30.22,South,171,4.8,13.2,43,0.00,,,0.00,WUHU21623XXSP,2013-04-21 22:08:00,
2013-04-21 18:13:00,54.3,31.6,30.22,SSE,157,5.1,13.2,42,0.00,,,0.00,WUHU21623XXSP,2013-04-21 22:13:00,
2013-04-21 18:18:00,54.3,31.6,30.22,South,180,5.1,13.9,42,0.00,,,0.00,WUHU21623XXSP,2013-04-21 22:18:00,
2013-04-21 18:23:00,54.1,31.4,30.22,South,180,3.6,13.9,42,0.00,,,0.00,WUHU21623XXSP,2013-04-21 22:23:00,
2013-04-21 18:27:00,54.1,32.0,30.22,East,90,3.1,8.9,43,0.00,,,0.00,WUHU21623XXSP,2013-04-21 22:27:00,
2013-04-21 18:33:00,54.1,31.4,30.21,SE,136,4.5,7.8,42,0.00,,,0.00,WUHU21623XXSP,2013-04-21 22:33:00,
2013-04-21 18:38:00,54.0,31.8,30.22,SW,225,7.4,7.8,43,0.00,,,0.00,WUHU21623XXSP,2013-04-21 22:38:00,
2013-04-21 18:42:00,54.0,31.3,30.21,South,180,6.9,11.4,42,0.00,,,0.00,WUHU21623XXSP,2013-04-21 22:42:00,
2013-04-21 18:47:00,54.0,31.3,30.21,SE,135,5.4,11.4,42,0.00,,,0.00,WUHU21623XXSP,2013-04-21 22:47:00,
2013-04-21 18:52:00,53.8,31.7,30.21,SE,143,4.7,11.2,43,0.00,,,0.00,WUHU21623XXSP,2013-04-21 22:52:00,
2013-04-21 18:57:00,53.4,31.4,30.21,SE,133,4.1,8.3,43,0.00,,,0.00,WUHU21623XXSP,2013-04-21 22:57:00,
2013-04-21 19:02:00,53.4,30.8,30.20,SSE,158,4.7,9.8,42,0.00,,,0.00,WUHU21623XXSP,2013-04-21 23:02:00,
2013-04-21 19:07:00,53.2,31.2,30.21,SE,144,3.3,9.8,43,0.00,,,0.00,WUHU21623XXSP,2013-04-21 23:07:00,
2013-04-21 19:13:00,54.0,31.3,30.20,South,180,6.0,9.6,42,0.00,,,0.00,WUHU21623XXSP,2013-04-21 23:13:00,
2013-04-21 19:17:00,55.2,32.4,30.20,SSW,202,5.4,9.6,42,0.00,,,0.00,WUHU21623XXSP,2013-04-21 23:17:00,
2013-04-21 19:22:00,56.3,33.4,30.20,SSW,202,4.3,8.5,42,0.00,,,0.00,WUHU21623XXSP,2013-04-21 23:22:00,
2013-04-21 19:28:00,57.0,33.5,30.20,SE,146,3.8,10.5,41,0.00,,,0.00,WUHU21623XXSP,2013-04-21 23:28:00,
2013-04-21 19:32:00,57.2,33.1,30.20,SSE,148,5.2,10.5,40,0.00,,,0.00,WUHU21623XXSP,2013-04-21 23:32:00,
2013-04-21 19:37:00,56.7,32.6,30.20,South,180,3.6,10.5,40,0.00,,,0.00,WUHU21623XXSP,2013-04-21 23:37:00,
2013-04-21 19:42:00,55.2,32.4,30.20,SSE,156,2.6,7.6,42,0.00,,,0.00,WUHU21623XXSP,2013-04-21 23:42:00,
2013-04-21 19:48:00,54.3,32.2,30.20,South,180,4.0,7.2,43,0.00,,,0.00,WUHU21623XXSP,2013-04-21 23:48:00,
2013-04-21 19:52:00,53.2,31.7,30.20,SSE,159,4.1,7.8,44,0.00,,,0.00,WUHU21623XXSP,2013-04-21 23:52:00,
2013-04-21 19:57:00,52.2,30.8,30.20,SSE,157,8.9,8.9,44,0.00,,,0.00,WUHU21623XXSP,2013-04-21 23:57:00,
2013-04-21 20:03:00,51.4,30.7,30.21,SSE,150,3.6,8.9,45,0.00,,,0.00,WUHU21623XXSP,2013-04-22 00:03:00,
2013-04-21 20:07:00,50.7,30.6,30.21,SSE,157,4.0,6.3,46,0.00,,,0.00,WUHU21623XXSP,2013-04-22 00:07:00,
2013-04-21 20:13:00,50.2,30.7,30.21,SSE,160,2.5,6.0,47,0.00,,,0.00,WUHU21623XXSP,2013-04-22 00:13:00,
2013-04-21 20:17:00,49.8,30.3,30.21,South,171,1.3,5.1,47,0.00,,,0.00,WUHU21623XXSP,2013-04-22 00:17:00,
2013-04-21 20:22:00,49.3,30.3,30.21,SSE,166,3.0,8.9,48,0.00,,,0.00,WUHU21623XXSP,2013-04-22 00:22:00,
2013-04-21 20:28:00,48.9,30.5,30.21,SE,135,2.5,8.9,49,0.00,,,0.00,WUHU21623XXSP,2013-04-22 00:28:00,
2013-04-21 20:32:00,48.6,29.6,30.21,SE,135,4.0,6.3,48,0.00,,,0.00,WUHU21623XXSP,2013-04-22 00:32:00,
2013-04-21 20:37:00,48.0,29.7,30.21,SSE,157,1.6,6.3,49,0.00,,,0.00,WUHU21623XXSP,2013-04-22 00:37:00,
2013-04-21 20:42:00,47.8,30.1,30.21,SSE,156,1.6,5.6,50,0.00,,,0.00,WUHU21623XXSP,2013-04-22 00:42:00,
2013-04-21 20:47:00,47.5,29.7,30.21,SE,125,2.9,5.6,50,0.00,,,0.00,WUHU21623XXSP,2013-04-22 00:47:00,
2013-04-21 20:52:00,47.1,29.9,30.21,ESE,120,1.0,6.0,51,0.00,,,0.00,WUHU21623XXSP,2013-04-22 00:52:00,
2013-04-21 20:57:00,46.9,29.7,30.21,SE,146,1.9,6.0,51,0.00,,,0.00,WUHU21623XXSP,2013-04-22 00:57:00,
2013-04-21 21:02:00,46.8,30.0,30.21,ESE,112,2.1,6.5,52,0.00,,,0.00,WUHU21623XXSP,2013-04-22 01:02:00,
2013-04-21 21:07:00,46.6,30.3,30.21,SSE,155,1.8,6.5,53,0.00,,,0.00,WUHU21623XXSP,2013-04-22 01:07:00,
2013-04-21 21:12:00,46.2,29.9,30.22,SE,135,1.4,3.6,53,0.00,,,0.00,WUHU21623XXSP,2013-04-22 01:12:00,
2013-04-21 21:17:00,46.2,30.4,30.21,SE,144,1.8,3.6,54,0.00,,,0.00,WUHU21623XXSP,2013-04-22 01:17:00,
2013-04-21 21:22:00,46.0,30.2,30.22,SE,146,2.0,6.0,54,0.00,,,0.00,WUHU21623XXSP,2013-04-22 01:22:00,
2013-04-21 21:27:00,45.9,30.5,30.21,SE,129,2.0,6.0,55,0.00,,,0.00,WUHU21623XXSP,2013-04-22 01:27:00,
2013-04-21 21:32:00,45.7,30.4,30.22,SSE,157,1.4,4.9,55,0.00,,,0.00,WUHU21623XXSP,2013-04-22 01:32:00,
2013-04-21 21:37:00,45.5,30.2,30.21,SE,146,2.2,4.9,55,0.00,,,0.00,WUHU21623XXSP,2013-04-22 01:37:00,
2013-04-21 21:42:00,45.3,30.0,30.22,NNE,22,2.5,4.7,55,0.00,,,0.00,WUHU21623XXSP,2013-04-22 01:42:00,
2013-04-21 21:47:00,45.1,29.9,30.22,South,176,1.7,3.6,55,0.00,,,0.00,WUHU21623XXSP,2013-04-22 01:47:00,
2013-04-21 21:52:00,45.0,29.7,30.22,South,174,2.3,3.8,55,0.00,,,0.00,WUHU21623XXSP,2013-04-22 01:52:00,
2013-04-21 21:57:00,45.0,30.2,30.22,South,178,2.0,4.0,56,0.00,,,0.00,WUHU21623XXSP,2013-04-22 01:57:00,
2013-04-21 22:02:00,45.0,30.2,30.22,SE,140,1.8,4.0,56,0.00,,,0.00,WUHU21623XXSP,2013-04-22 02:02:00,
2013-04-21 22:07:00,44.8,30.0,30.22,SSE,157,3.1,4.7,56,0.00,,,0.00,WUHU21623XXSP,2013-04-22 02:07:00,
2013-04-21 22:12:00,44.6,29.8,30.22,SSE,149,2.2,4.7,56,0.00,,,0.00,WUHU21623XXSP,2013-04-22 02:12:00,
2013-04-21 22:18:00,44.4,29.7,30.22,ESE,121,1.1,4.5,56,0.00,,,0.00,WUHU21623XXSP,2013-04-22 02:18:00,
2013-04-21 22:23:00,44.4,30.1,30.22,South,185,2.1,5.1,57,0.00,,,0.00,WUHU21623XXSP,2013-04-22 02:23:00,
2013-04-21 22:28:00,44.4,30.1,30.22,East,91,1.3,5.1,57,0.00,,,0.00,WUHU21623XXSP,2013-04-22 02:28:00,
2013-04-21 22:33:00,44.2,29.9,30.23,ESE,121,1.8,2.9,57,0.00,,,0.00,WUHU21623XXSP,2013-04-22 02:33:00,
2013-04-21 22:38:00,44.2,29.9,30.23,SSE,165,2.2,5.8,57,0.00,,,0.00,WUHU21623XXSP,2013-04-22 02:38:00,
2013-04-21 22:43:00,44.1,29.8,30.22,SSE,152,1.9,5.8,57,0.00,,,0.00,WUHU21623XXSP,2013-04-22 02:43:00,
2013-04-21 22:48:00,44.1,29.8,30.22,SSE,165,2.8,5.1,57,0.00,,,0.00,WUHU21623XXSP,2013-04-22 02:48:00,
2013-04-21 22:53:00,43.9,29.6,30.22,SE,139,2.2,5.1,57,0.00,,,0.00,WUHU21623XXSP,2013-04-22 02:53:00,
2013-04-21 22:58:00,43.9,29.6,30.22,SSE,147,2.2,4.0,57,0.00,,,0.00,WUHU21623XXSP,2013-04-22 02:58:00,
2013-04-21 23:03:00,43.7,29.4,30.22,SSE,157,0.0,6.5,57,0.00,,,0.00,WUHU21623XXSP,2013-04-22 03:03:00,
2013-04-21 23:08:00,43.7,29.4,30.22,WSW,247,2.0,6.5,57,0.00,,,0.00,WUHU21623XXSP,2013-04-22 03:08:00,
2013-04-21 23:13:00,43.5,29.2,30.22,SE,135,0.9,5.1,57,0.00,,,0.00,WUHU21623XXSP,2013-04-22 03:13:00,
2013-04-21 23:18:00,43.5,29.7,30.22,SE,129,1.2,5.1,58,0.00,,,0.00,WUHU21623XXSP,2013-04-22 03:18:00,
2013-04-21 23:23:00,43.3,29.5,30.22,SE,135,1.6,3.4,58,0.00,,,0.00,WUHU21623XXSP,2013-04-22 03:23:00,
2013-04-21 23:28:00,43.3,29.9,30.21,SSE,157,2.4,3.6,59,0.00,,,0.00,WUHU21623XXSP,2013-04-22 03:28:00,
2013-04-21 23:33:00,43.2,29.3,30.21,SSE,152,1.4,3.6,58,0.00,,,0.00,WUHU21623XXSP,2013-04-22 03:33:00,
2013-04-21 23:38:00,43.0,29.6,30.21,SSE,150,2.6,4.5,59,0.00,,,0.00,WUHU21623XXSP,2013-04-22 03:38:00,
2013-04-21 23:43:00,43.0,29.6,30.21,South,180,2.5,8.7,59,0.00,,,0.00,WUHU21623XXSP,2013-04-22 03:43:00,
2013-04-21 23:48:00,42.8,29.4,30.21,SE,144,1.8,8.7,59,0.00,,,0.00,WUHU21623XXSP,2013-04-22 03:48:00,
2013-04-21 23:53:00,42.6,29.2,30.20,SE,131,1.2,5.8,59,0.00,,,0.00,WUHU21623XXSP,2013-04-22 03:53:00,
2013-04-21 23:58:00,42.6,29.2,30.20,SSE,157,4.5,6.7,59,0.00,,,0.00,WUHU21623XXSP,2013-04-22 03:58:00,